sensor_id;sensor_type;location;lat;lon;timestamp;P1;durP1;ratioP1;P2;durP2;ratioP2
77402;SDS011;66472;53.046;8.656;2023-04-25T00:03:44;30.80;;;28.03;;
77402;SDS011;66472;53.046;8.656;2023-04-25T00:08:41;30.03;;;26.90;;
77402;SDS011;66472;53.046;8.656;2023-04-25T00:13:36;28.10;;;25.47;;
77402;SDS011;66472;53.046;8.656;2023-04-25T00:18:31;28.13;;;25.07;;
77402;SDS011;66472;53.046;8.656;2023-04-25T00:23:28;28.97;;;23.07;;
77402;SDS011;66472;53.046;8.656;2023-04-25T00:28:23;28.30;;;21.40;;
77402;SDS011;66472;53.046;8.656;2023-04-25T00:33:18;27.93;;;22.33;;
77402;SDS011;66472;53.046;8.656;2023-04-25T00:38:14;25.03;;;21.67;;
77402;SDS011;66472;53.046;8.656;2023-04-25T00:43:10;28.60;;;20.10;;
77402;SDS011;66472;53.046;8.656;2023-04-25T00:48:05;32.60;;;20.47;;
77402;SDS011;66472;53.046;8.656;2023-04-25T00:53:00;30.13;;;19.60;;
77402;SDS011;66472;53.046;8.656;2023-04-25T00:57:56;27.27;;;19.20;;
77402;SDS011;66472;53.046;8.656;2023-04-25T01:02:52;35.23;;;17.70;;
77402;SDS011;66472;53.046;8.656;2023-04-25T01:07:47;29.20;;;18.17;;
77402;SDS011;66472;53.046;8.656;2023-04-25T01:12:43;23.93;;;16.33;;
77402;SDS011;66472;53.046;8.656;2023-04-25T01:17:38;28.27;;;16.50;;
77402;SDS011;66472;53.046;8.656;2023-04-25T01:22:36;33.17;;;18.07;;
77402;SDS011;66472;53.046;8.656;2023-04-25T01:27:31;23.03;;;15.60;;
77402;SDS011;66472;53.046;8.656;2023-04-25T01:32:27;21.53;;;15.40;;
77402;SDS011;66472;53.046;8.656;2023-04-25T01:37:25;23.90;;;12.57;;
77402;SDS011;66472;53.046;8.656;2023-04-25T01:42:20;28.63;;;13.47;;
77402;SDS011;66472;53.046;8.656;2023-04-25T01:47:16;25.43;;;11.73;;
77402;SDS011;66472;53.046;8.656;2023-04-25T01:52:12;23.83;;;12.10;;
77402;SDS011;66472;53.046;8.656;2023-04-25T01:57:08;16.63;;;11.00;;
77402;SDS011;66472;53.046;8.656;2023-04-25T02:02:05;20.10;;;11.87;;
77402;SDS011;66472;53.046;8.656;2023-04-25T02:07:03;15.03;;;11.10;;
77402;SDS011;66472;53.046;8.656;2023-04-25T02:12:09;20.73;;;11.53;;
77402;SDS011;66472;53.046;8.656;2023-04-25T02:17:22;27.23;;;11.10;;
77402;SDS011;66472;53.046;8.656;2023-04-25T02:22:19;21.97;;;10.63;;
77402;SDS011;66472;53.046;8.656;2023-04-25T02:27:15;23.40;;;11.47;;
77402;SDS011;66472;53.046;8.656;2023-04-25T02:32:10;16.23;;;11.97;;
77402;SDS011;66472;53.046;8.656;2023-04-25T02:37:05;21.33;;;12.93;;
77402;SDS011;66472;53.046;8.656;2023-04-25T02:42:01;25.03;;;10.57;;
77402;SDS011;66472;53.046;8.656;2023-04-25T02:46:58;25.70;;;12.53;;
77402;SDS011;66472;53.046;8.656;2023-04-25T02:51:53;19.58;;;11.45;;
77402;SDS011;66472;53.046;8.656;2023-04-25T02:56:49;21.63;;;10.73;;
77402;SDS011;66472;53.046;8.656;2023-04-25T03:01:51;21.43;;;11.50;;
77402;SDS011;66472;53.046;8.656;2023-04-25T03:06:47;13.43;;;10.00;;
77402;SDS011;66472;53.046;8.656;2023-04-25T03:11:43;21.90;;;10.27;;
77402;SDS011;66472;53.046;8.656;2023-04-25T03:16:39;26.13;;;10.23;;
77402;SDS011;66472;53.046;8.656;2023-04-25T03:21:34;25.13;;;11.10;;
77402;SDS011;66472;53.046;8.656;2023-04-25T03:26:30;16.30;;;10.93;;
77402;SDS011;66472;53.046;8.656;2023-04-25T03:31:25;16.93;;;8.47;;
77402;SDS011;66472;53.046;8.656;2023-04-25T03:36:21;23.97;;;9.57;;
77402;SDS011;66472;53.046;8.656;2023-04-25T03:41:16;19.27;;;8.67;;
77402;SDS011;66472;53.046;8.656;2023-04-25T03:46:19;15.50;;;9.33;;
77402;SDS011;66472;53.046;8.656;2023-04-25T03:51:16;20.40;;;9.30;;
77402;SDS011;66472;53.046;8.656;2023-04-25T03:56:13;19.00;;;9.77;;
77402;SDS011;66472;53.046;8.656;2023-04-25T04:01:09;16.60;;;9.00;;
77402;SDS011;66472;53.046;8.656;2023-04-25T04:06:07;16.63;;;9.63;;
77402;SDS011;66472;53.046;8.656;2023-04-25T04:11:12;17.97;;;8.50;;
77402;SDS011;66472;53.046;8.656;2023-04-25T04:16:08;16.23;;;8.83;;
77402;SDS011;66472;53.046;8.656;2023-04-25T04:21:04;19.40;;;8.87;;
77402;SDS011;66472;53.046;8.656;2023-04-25T04:26:02;12.17;;;7.50;;
77402;SDS011;66472;53.046;8.656;2023-04-25T04:31:21;14.90;;;9.07;;
77402;SDS011;66472;53.046;8.656;2023-04-25T04:36:17;17.07;;;9.90;;
77402;SDS011;66472;53.046;8.656;2023-04-25T04:41:15;17.50;;;10.73;;
77402;SDS011;66472;53.046;8.656;2023-04-25T04:46:22;19.00;;;8.13;;
77402;SDS011;66472;53.046;8.656;2023-04-25T04:51:39;14.17;;;7.67;;
77402;SDS011;66472;53.046;8.656;2023-04-25T04:56:59;16.33;;;7.40;;
77402;SDS011;66472;53.046;8.656;2023-04-25T05:02:05;11.87;;;8.07;;
77402;SDS011;66472;53.046;8.656;2023-04-25T05:07:29;14.37;;;8.87;;
77402;SDS011;66472;53.046;8.656;2023-04-25T05:12:33;18.00;;;8.93;;
77402;SDS011;66472;53.046;8.656;2023-04-25T05:17:55;16.43;;;7.93;;
77402;SDS011;66472;53.046;8.656;2023-04-25T05:23:01;18.53;;;8.13;;
77402;SDS011;66472;53.046;8.656;2023-04-25T05:28:14;12.20;;;6.67;;
77402;SDS011;66472;53.046;8.656;2023-04-25T05:33:21;12.37;;;7.43;;
77402;SDS011;66472;53.046;8.656;2023-04-25T05:38:17;11.73;;;8.00;;
77402;SDS011;66472;53.046;8.656;2023-04-25T05:43:31;11.20;;;7.47;;
77402;SDS011;66472;53.046;8.656;2023-04-25T05:48:39;13.00;;;7.37;;
77402;SDS011;66472;53.046;8.656;2023-04-25T05:53:47;8.30;;;7.40;;
77402;SDS011;66472;53.046;8.656;2023-04-25T05:58:43;46.53;;;10.50;;
77402;SDS011;66472;53.046;8.656;2023-04-25T06:03:41;15.33;;;7.17;;
77402;SDS011;66472;53.046;8.656;2023-04-25T06:08:39;13.37;;;7.37;;
77402;SDS011;66472;53.046;8.656;2023-04-25T06:13:34;14.00;;;7.77;;
77402;SDS011;66472;53.046;8.656;2023-04-25T06:18:30;16.03;;;6.83;;
77402;SDS011;66472;53.046;8.656;2023-04-25T06:23:25;15.20;;;7.80;;
77402;SDS011;66472;53.046;8.656;2023-04-25T06:28:27;21.10;;;7.20;;
77402;SDS011;66472;53.046;8.656;2023-04-25T06:33:22;13.37;;;7.23;;
77402;SDS011;66472;53.046;8.656;2023-04-25T06:38:20;10.20;;;6.03;;
77402;SDS011;66472;53.046;8.656;2023-04-25T06:43:19;12.53;;;5.33;;
77402;SDS011;66472;53.046;8.656;2023-04-25T06:48:33;16.80;;;6.57;;
77402;SDS011;66472;53.046;8.656;2023-04-25T06:53:29;9.20;;;5.50;;
77402;SDS011;66472;53.046;8.656;2023-04-25T06:58:28;7.77;;;6.53;;
77402;SDS011;66472;53.046;8.656;2023-04-25T07:03:38;12.00;;;6.23;;
77402;SDS011;66472;53.046;8.656;2023-04-25T07:08:38;9.87;;;6.63;;
77402;SDS011;66472;53.046;8.656;2023-04-25T07:13:33;10.07;;;6.43;;
77402;SDS011;66472;53.046;8.656;2023-04-25T07:18:29;9.57;;;5.83;;
77402;SDS011;66472;53.046;8.656;2023-04-25T07:23:25;7.77;;;5.10;;
77402;SDS011;66472;53.046;8.656;2023-04-25T07:28:21;7.63;;;4.90;;
77402;SDS011;66472;53.046;8.656;2023-04-25T07:33:17;11.07;;;5.90;;
77402;SDS011;66472;53.046;8.656;2023-04-25T07:38:15;11.00;;;7.50;;
77402;SDS011;66472;53.046;8.656;2023-04-25T07:43:10;7.93;;;4.90;;
77402;SDS011;66472;53.046;8.656;2023-04-25T07:48:20;12.10;;;5.47;;
77402;SDS011;66472;53.046;8.656;2023-04-25T07:53:17;7.60;;;5.33;;
77402;SDS011;66472;53.046;8.656;2023-04-25T07:58:21;6.13;;;4.63;;
77402;SDS011;66472;53.046;8.656;2023-04-25T08:03:20;9.23;;;4.47;;
77402;SDS011;66472;53.046;8.656;2023-04-25T08:08:17;9.33;;;4.30;;
77402;SDS011;66472;53.046;8.656;2023-04-25T08:13:12;7.33;;;4.70;;
77402;SDS011;66472;53.046;8.656;2023-04-25T08:18:09;11.87;;;5.20;;
77402;SDS011;66472;53.046;8.656;2023-04-25T08:23:05;11.40;;;5.23;;
77402;SDS011;66472;53.046;8.656;2023-04-25T08:28:21;10.07;;;5.67;;
77402;SDS011;66472;53.046;8.656;2023-04-25T08:33:17;6.70;;;6.00;;
77402;SDS011;66472;53.046;8.656;2023-04-25T08:38:24;7.47;;;5.80;;
77402;SDS011;66472;53.046;8.656;2023-04-25T08:43:19;5.67;;;5.07;;
77402;SDS011;66472;53.046;8.656;2023-04-25T08:48:16;5.40;;;5.00;;
77402;SDS011;66472;53.046;8.656;2023-04-25T08:53:12;6.83;;;5.10;;
77402;SDS011;66472;53.046;8.656;2023-04-25T08:58:14;7.13;;;5.43;;
77402;SDS011;66472;53.046;8.656;2023-04-25T09:03:10;7.23;;;4.80;;
77402;SDS011;66472;53.046;8.656;2023-04-25T09:08:07;6.17;;;4.13;;
77402;SDS011;66472;53.046;8.656;2023-04-25T09:18:03;4.77;;;4.23;;
77402;SDS011;66472;53.046;8.656;2023-04-25T09:23:06;7.47;;;4.43;;
77402;SDS011;66472;53.046;8.656;2023-04-25T09:28:05;7.27;;;4.00;;
77402;SDS011;66472;53.046;8.656;2023-04-25T09:33:08;6.87;;;4.63;;
77402;SDS011;66472;53.046;8.656;2023-04-25T09:38:08;5.13;;;3.80;;
77402;SDS011;66472;53.046;8.656;2023-04-25T09:43:24;5.33;;;3.93;;
77402;SDS011;66472;53.046;8.656;2023-04-25T09:48:21;5.70;;;3.57;;
77402;SDS011;66472;53.046;8.656;2023-04-25T09:53:18;4.10;;;3.20;;
77402;SDS011;66472;53.046;8.656;2023-04-25T09:58:30;5.97;;;4.00;;
77402;SDS011;66472;53.046;8.656;2023-04-25T10:03:26;10.70;;;3.43;;
77402;SDS011;66472;53.046;8.656;2023-04-25T10:08:35;4.50;;;3.03;;
77402;SDS011;66472;53.046;8.656;2023-04-25T10:13:31;8.37;;;4.10;;
77402;SDS011;66472;53.046;8.656;2023-04-25T10:18:27;7.57;;;3.17;;
77402;SDS011;66472;53.046;8.656;2023-04-25T10:23:22;4.37;;;4.00;;
77402;SDS011;66472;53.046;8.656;2023-04-25T10:28:18;6.30;;;4.33;;
77402;SDS011;66472;53.046;8.656;2023-04-25T10:33:17;10.53;;;4.67;;
77402;SDS011;66472;53.046;8.656;2023-04-25T10:38:13;5.90;;;4.37;;
77402;SDS011;66472;53.046;8.656;2023-04-25T10:48:28;5.80;;;3.97;;
77402;SDS011;66472;53.046;8.656;2023-04-25T10:53:24;4.70;;;4.23;;
77402;SDS011;66472;53.046;8.656;2023-04-25T10:58:21;5.63;;;4.00;;
77402;SDS011;66472;53.046;8.656;2023-04-25T11:03:17;8.27;;;4.00;;
77402;SDS011;66472;53.046;8.656;2023-04-25T11:08:16;6.37;;;3.37;;
77402;SDS011;66472;53.046;8.656;2023-04-25T11:13:22;4.40;;;4.00;;
77402;SDS011;66472;53.046;8.656;2023-04-25T11:18:17;7.53;;;3.90;;
77402;SDS011;66472;53.046;8.656;2023-04-25T11:23:14;4.40;;;3.47;;
77402;SDS011;66472;53.046;8.656;2023-04-25T11:28:10;6.20;;;4.10;;
77402;SDS011;66472;53.046;8.656;2023-04-25T11:33:05;6.80;;;3.88;;
77402;SDS011;66472;53.046;8.656;2023-04-25T11:38:01;9.25;;;4.25;;
77402;SDS011;66472;53.046;8.656;2023-04-25T11:42:56;5.93;;;4.40;;
77402;SDS011;66472;53.046;8.656;2023-04-25T11:47:54;4.53;;;3.20;;
77402;SDS011;66472;53.046;8.656;2023-04-25T11:52:50;4.90;;;4.50;;
77402;SDS011;66472;53.046;8.656;2023-04-25T11:57:49;6.93;;;4.23;;
77402;SDS011;66472;53.046;8.656;2023-04-25T12:02:55;5.27;;;4.03;;
77402;SDS011;66472;53.046;8.656;2023-04-25T12:07:50;3.97;;;3.63;;
77402;SDS011;66472;53.046;8.656;2023-04-25T12:12:46;4.97;;;3.60;;
77402;SDS011;66472;53.046;8.656;2023-04-25T12:17:44;5.07;;;4.37;;
77402;SDS011;66472;53.046;8.656;2023-04-25T12:22:43;4.53;;;3.30;;
77402;SDS011;66472;53.046;8.656;2023-04-25T12:27:39;6.20;;;4.67;;
77402;SDS011;66472;53.046;8.656;2023-04-25T12:32:37;3.53;;;3.33;;
77402;SDS011;66472;53.046;8.656;2023-04-25T12:37:33;5.80;;;4.07;;
77402;SDS011;66472;53.046;8.656;2023-04-25T12:42:28;4.87;;;3.53;;
77402;SDS011;66472;53.046;8.656;2023-04-25T12:47:24;4.43;;;3.50;;
77402;SDS011;66472;53.046;8.656;2023-04-25T12:52:19;6.50;;;3.60;;
77402;SDS011;66472;53.046;8.656;2023-04-25T12:57:15;4.50;;;3.20;;
77402;SDS011;66472;53.046;8.656;2023-04-25T13:02:11;6.73;;;3.90;;
77402;SDS011;66472;53.046;8.656;2023-04-25T13:07:06;4.47;;;3.57;;
77402;SDS011;66472;53.046;8.656;2023-04-25T13:12:02;5.20;;;3.78;;
77402;SDS011;66472;53.046;8.656;2023-04-25T13:16:57;5.13;;;3.97;;
77402;SDS011;66472;53.046;8.656;2023-04-25T13:21:52;6.20;;;4.03;;
77402;SDS011;66472;53.046;8.656;2023-04-25T13:26:48;3.63;;;3.13;;
77402;SDS011;66472;53.046;8.656;2023-04-25T13:31:43;6.43;;;3.67;;
77402;SDS011;66472;53.046;8.656;2023-04-25T13:36:38;6.90;;;3.87;;
77402;SDS011;66472;53.046;8.656;2023-04-25T13:41:34;5.53;;;3.97;;
77402;SDS011;66472;53.046;8.656;2023-04-25T13:46:29;4.70;;;4.03;;
77402;SDS011;66472;53.046;8.656;2023-04-25T13:51:24;3.27;;;3.07;;
77402;SDS011;66472;53.046;8.656;2023-04-25T13:56:21;3.40;;;3.10;;
77402;SDS011;66472;53.046;8.656;2023-04-25T14:01:18;3.70;;;3.50;;
77402;SDS011;66472;53.046;8.656;2023-04-25T14:06:15;5.37;;;4.77;;
77402;SDS011;66472;53.046;8.656;2023-04-25T14:11:17;3.70;;;3.40;;
77402;SDS011;66472;53.046;8.656;2023-04-25T14:16:16;6.27;;;3.40;;
77402;SDS011;66472;53.046;8.656;2023-04-25T14:21:11;6.40;;;4.20;;
77402;SDS011;66472;53.046;8.656;2023-04-25T14:26:06;6.63;;;3.33;;
77402;SDS011;66472;53.046;8.656;2023-04-25T14:31:02;6.43;;;3.87;;
77402;SDS011;66472;53.046;8.656;2023-04-25T14:35:57;4.37;;;3.97;;
77402;SDS011;66472;53.046;8.656;2023-04-25T14:40:52;7.27;;;4.50;;
77402;SDS011;66472;53.046;8.656;2023-04-25T14:45:49;3.87;;;3.57;;
77402;SDS011;66472;53.046;8.656;2023-04-25T14:50:44;4.23;;;3.83;;
77402;SDS011;66472;53.046;8.656;2023-04-25T14:55:40;3.70;;;3.40;;
77402;SDS011;66472;53.046;8.656;2023-04-25T15:00:35;4.20;;;3.80;;
77402;SDS011;66472;53.046;8.656;2023-04-25T15:05:30;5.93;;;3.87;;
77402;SDS011;66472;53.046;8.656;2023-04-25T15:10:26;6.93;;;4.30;;
77402;SDS011;66472;53.046;8.656;2023-04-25T15:15:21;4.57;;;4.13;;
77402;SDS011;66472;53.046;8.656;2023-04-25T15:20:17;5.83;;;5.17;;
77402;SDS011;66472;53.046;8.656;2023-04-25T15:25:13;6.80;;;3.80;;
77402;SDS011;66472;53.046;8.656;2023-04-25T15:30:08;14.32;;;4.80;;
77402;SDS011;66472;53.046;8.656;2023-04-25T15:35:06;9.27;;;4.20;;
77402;SDS011;66472;53.046;8.656;2023-04-25T15:40:03;5.07;;;4.27;;
77402;SDS011;66472;53.046;8.656;2023-04-25T15:45:07;5.90;;;4.07;;
77402;SDS011;66472;53.046;8.656;2023-04-25T15:50:03;5.40;;;3.57;;
77402;SDS011;66472;53.046;8.656;2023-04-25T15:55:00;4.93;;;4.47;;
77402;SDS011;66472;53.046;8.656;2023-04-25T15:59:55;7.87;;;4.00;;
77402;SDS011;66472;53.046;8.656;2023-04-25T16:04:51;6.53;;;3.67;;
77402;SDS011;66472;53.046;8.656;2023-04-25T16:09:46;4.97;;;3.70;;
77402;SDS011;66472;53.046;8.656;2023-04-25T16:14:41;9.63;;;3.83;;
77402;SDS011;66472;53.046;8.656;2023-04-25T16:19:37;7.27;;;3.77;;
77402;SDS011;66472;53.046;8.656;2023-04-25T16:24:32;4.80;;;3.37;;
77402;SDS011;66472;53.046;8.656;2023-04-25T16:29:28;6.50;;;5.03;;
77402;SDS011;66472;53.046;8.656;2023-04-25T16:34:23;6.07;;;4.10;;
77402;SDS011;66472;53.046;8.656;2023-04-25T16:39:21;4.73;;;3.47;;
77402;SDS011;66472;53.046;8.656;2023-04-25T16:44:17;9.43;;;3.87;;
77402;SDS011;66472;53.046;8.656;2023-04-25T16:49:12;4.68;;;3.17;;
77402;SDS011;66472;53.046;8.656;2023-04-25T16:54:07;8.07;;;3.87;;
77402;SDS011;66472;53.046;8.656;2023-04-25T16:59:03;3.93;;;3.47;;
77402;SDS011;66472;53.046;8.656;2023-04-25T17:03:58;5.90;;;3.50;;
77402;SDS011;66472;53.046;8.656;2023-04-25T17:08:53;3.85;;;3.53;;
77402;SDS011;66472;53.046;8.656;2023-04-25T17:13:49;7.33;;;4.00;;
77402;SDS011;66472;53.046;8.656;2023-04-25T17:18:45;9.13;;;4.03;;
77402;SDS011;66472;53.046;8.656;2023-04-25T17:23:40;5.30;;;4.80;;
77402;SDS011;66472;53.046;8.656;2023-04-25T17:28:39;6.33;;;4.93;;
77402;SDS011;66472;53.046;8.656;2023-04-25T17:33:36;8.53;;;4.67;;
77402;SDS011;66472;53.046;8.656;2023-04-25T17:38:32;5.33;;;4.47;;
77402;SDS011;66472;53.046;8.656;2023-04-25T17:43:28;6.13;;;3.80;;
77402;SDS011;66472;53.046;8.656;2023-04-25T17:48:24;7.17;;;4.57;;
77402;SDS011;66472;53.046;8.656;2023-04-25T17:53:20;5.57;;;4.33;;
77402;SDS011;66472;53.046;8.656;2023-04-25T17:58:16;5.60;;;4.07;;
77402;SDS011;66472;53.046;8.656;2023-04-25T18:03:11;10.77;;;4.20;;
77402;SDS011;66472;53.046;8.656;2023-04-25T18:08:07;4.23;;;3.87;;
77402;SDS011;66472;53.046;8.656;2023-04-25T18:13:02;10.60;;;4.87;;
77402;SDS011;66472;53.046;8.656;2023-04-25T18:17:57;6.72;;;3.72;;
77402;SDS011;66472;53.046;8.656;2023-04-25T18:22:53;7.67;;;4.10;;
77402;SDS011;66472;53.046;8.656;2023-04-25T18:27:48;11.07;;;6.78;;
77402;SDS011;66472;53.046;8.656;2023-04-25T18:32:45;9.67;;;4.00;;
77402;SDS011;66472;53.046;8.656;2023-04-25T18:37:40;6.43;;;4.13;;
77402;SDS011;66472;53.046;8.656;2023-04-25T18:42:36;10.60;;;4.10;;
77402;SDS011;66472;53.046;8.656;2023-04-25T18:47:32;4.07;;;3.60;;
77402;SDS011;66472;53.046;8.656;2023-04-25T18:52:27;13.47;;;4.30;;
77402;SDS011;66472;53.046;8.656;2023-04-25T18:57:22;7.30;;;5.23;;
77402;SDS011;66472;53.046;8.656;2023-04-25T19:02:18;13.60;;;5.43;;
77402;SDS011;66472;53.046;8.656;2023-04-25T19:07:14;6.00;;;4.73;;
77402;SDS011;66472;53.046;8.656;2023-04-25T19:12:09;8.87;;;3.70;;
77402;SDS011;66472;53.046;8.656;2023-04-25T19:17:05;8.30;;;3.70;;
77402;SDS011;66472;53.046;8.656;2023-04-25T19:22:00;6.85;;;3.63;;
77402;SDS011;66472;53.046;8.656;2023-04-25T19:26:55;7.28;;;4.63;;
77402;SDS011;66472;53.046;8.656;2023-04-25T19:31:51;9.27;;;4.30;;
77402;SDS011;66472;53.046;8.656;2023-04-25T19:36:47;10.87;;;4.53;;
77402;SDS011;66472;53.046;8.656;2023-04-25T19:41:42;8.87;;;4.30;;
77402;SDS011;66472;53.046;8.656;2023-04-25T19:46:38;8.20;;;4.17;;
77402;SDS011;66472;53.046;8.656;2023-04-25T19:51:34;10.83;;;5.03;;
77402;SDS011;66472;53.046;8.656;2023-04-25T19:56:30;9.80;;;4.63;;
77402;SDS011;66472;53.046;8.656;2023-04-25T20:01:25;6.03;;;4.73;;
77402;SDS011;66472;53.046;8.656;2023-04-25T20:06:21;8.10;;;3.73;;
77402;SDS011;66472;53.046;8.656;2023-04-25T20:11:16;5.53;;;4.23;;
77402;SDS011;66472;53.046;8.656;2023-04-25T20:16:11;9.88;;;5.10;;
77402;SDS011;66472;53.046;8.656;2023-04-25T20:21:07;10.07;;;4.27;;
77402;SDS011;66472;53.046;8.656;2023-04-25T20:26:02;9.70;;;4.73;;
77402;SDS011;66472;53.046;8.656;2023-04-25T20:30:58;13.05;;;5.13;;
77402;SDS011;66472;53.046;8.656;2023-04-25T20:35:53;11.97;;;5.00;;
77402;SDS011;66472;53.046;8.656;2023-04-25T20:40:49;4.93;;;4.30;;
77402;SDS011;66472;53.046;8.656;2023-04-25T20:45:45;8.13;;;5.17;;
77402;SDS011;66472;53.046;8.656;2023-04-25T20:50:40;9.80;;;4.70;;
77402;SDS011;66472;53.046;8.656;2023-04-25T20:55:35;10.27;;;5.73;;
77402;SDS011;66472;53.046;8.656;2023-04-25T21:00:31;16.30;;;7.70;;
77402;SDS011;66472;53.046;8.656;2023-04-25T21:05:26;9.00;;;5.18;;
77402;SDS011;66472;53.046;8.656;2023-04-25T21:10:21;8.97;;;6.83;;
77402;SDS011;66472;53.046;8.656;2023-04-25T21:15:17;11.25;;;6.38;;
77402;SDS011;66472;53.046;8.656;2023-04-25T21:20:14;8.27;;;5.67;;
77402;SDS011;66472;53.046;8.656;2023-04-25T21:25:12;12.13;;;6.90;;
77402;SDS011;66472;53.046;8.656;2023-04-25T21:30:09;18.23;;;6.77;;
77402;SDS011;66472;53.046;8.656;2023-04-25T21:35:04;7.20;;;5.30;;
77402;SDS011;66472;53.046;8.656;2023-04-25T21:40:00;11.43;;;5.63;;
77402;SDS011;66472;53.046;8.656;2023-04-25T21:44:56;8.30;;;5.47;;
77402;SDS011;66472;53.046;8.656;2023-04-25T21:49:59;12.07;;;6.27;;
77402;SDS011;66472;53.046;8.656;2023-04-25T21:54:57;9.40;;;5.33;;
77402;SDS011;66472;53.046;8.656;2023-04-25T21:59:52;8.27;;;5.97;;
77402;SDS011;66472;53.046;8.656;2023-04-25T22:04:48;8.50;;;5.97;;
77402;SDS011;66472;53.046;8.656;2023-04-25T22:09:44;7.53;;;6.43;;
77402;SDS011;66472;53.046;8.656;2023-04-25T22:14:39;9.00;;;5.20;;
77402;SDS011;66472;53.046;8.656;2023-04-25T22:19:35;13.23;;;7.57;;
77402;SDS011;66472;53.046;8.656;2023-04-25T22:24:31;13.10;;;6.10;;
77402;SDS011;66472;53.046;8.656;2023-04-25T22:29:30;8.77;;;6.37;;
77402;SDS011;66472;53.046;8.656;2023-04-25T22:34:25;12.17;;;6.80;;
77402;SDS011;66472;53.046;8.656;2023-04-25T22:39:23;6.93;;;6.13;;
77402;SDS011;66472;53.046;8.656;2023-04-25T22:44:21;9.23;;;7.27;;
77402;SDS011;66472;53.046;8.656;2023-04-25T22:49:17;12.90;;;6.50;;
77402;SDS011;66472;53.046;8.656;2023-04-25T22:54:13;9.70;;;6.90;;
77402;SDS011;66472;53.046;8.656;2023-04-25T22:59:08;9.60;;;7.20;;
77402;SDS011;66472;53.046;8.656;2023-04-25T23:04:05;11.00;;;6.70;;
77402;SDS011;66472;53.046;8.656;2023-04-25T23:09:01;11.03;;;6.13;;
77402;SDS011;66472;53.046;8.656;2023-04-25T23:13:58;11.57;;;6.67;;
77402;SDS011;66472;53.046;8.656;2023-04-25T23:18:53;7.95;;;7.15;;
77402;SDS011;66472;53.046;8.656;2023-04-25T23:23:48;7.65;;;6.95;;
77402;SDS011;66472;53.046;8.656;2023-04-25T23:28:44;9.87;;;6.23;;
77402;SDS011;66472;53.046;8.656;2023-04-25T23:33:41;14.30;;;7.70;;
77402;SDS011;66472;53.046;8.656;2023-04-25T23:38:39;8.90;;;6.60;;
77402;SDS011;66472;53.046;8.656;2023-04-25T23:43:37;12.67;;;7.03;;
77402;SDS011;66472;53.046;8.656;2023-04-25T23:48:32;7.20;;;6.50;;
77402;SDS011;66472;53.046;8.656;2023-04-25T23:53:30;10.83;;;7.80;;
77402;SDS011;66472;53.046;8.656;2023-04-25T23:58:26;11.87;;;6.50;;
